sensor_id;sensor_type;location;lat;lon;timestamp;temperature;humidity
54461;DHT22;40371;49.414;11.010;2022-10-31T00:02:11;13.00;99.90
54461;DHT22;40371;49.414;11.010;2022-10-31T00:04:36;12.90;99.90
54461;DHT22;40371;49.414;11.010;2022-10-31T00:07:02;12.90;99.90
54461;DHT22;40371;49.414;11.010;2022-10-31T00:09:27;12.70;99.90
54461;DHT22;40371;49.414;11.010;2022-10-31T00:11:53;12.80;99.90
54461;DHT22;40371;49.414;11.010;2022-10-31T00:14:18;12.90;99.90
54461;DHT22;40371;49.414;11.010;2022-10-31T00:16:44;13.00;99.90
54461;DHT22;40371;49.414;11.010;2022-10-31T00:19:10;13.00;99.90
54461;DHT22;40371;49.414;11.010;2022-10-31T00:21:35;13.00;99.90
54461;DHT22;40371;49.414;11.010;2022-10-31T00:24:02;13.00;99.90
54461;DHT22;40371;49.414;11.010;2022-10-31T00:26:29;12.90;99.90
54461;DHT22;40371;49.414;11.010;2022-10-31T00:28:58;12.80;99.90
54461;DHT22;40371;49.414;11.010;2022-10-31T00:31:24;12.60;99.90
54461;DHT22;40371;49.414;11.010;2022-10-31T00:33:49;12.60;99.90
54461;DHT22;40371;49.414;11.010;2022-10-31T00:36:18;12.60;99.90
54461;DHT22;40371;49.414;11.010;2022-10-31T00:38:45;12.50;99.90
54461;DHT22;40371;49.414;11.010;2022-10-31T00:41:13;12.60;99.90
54461;DHT22;40371;49.414;11.010;2022-10-31T00:43:40;12.50;99.90
54461;DHT22;40371;49.414;11.010;2022-10-31T00:46:06;12.50;99.90
54461;DHT22;40371;49.414;11.010;2022-10-31T00:48:32;12.40;99.90
54461;DHT22;40371;49.414;11.010;2022-10-31T00:50:58;12.40;99.90
54461;DHT22;40371;49.414;11.010;2022-10-31T00:53:23;12.40;99.90
54461;DHT22;40371;49.414;11.010;2022-10-31T00:55:49;12.40;99.90
54461;DHT22;40371;49.414;11.010;2022-10-31T00:58:15;12.40;99.90
54461;DHT22;40371;49.414;11.010;2022-10-31T01:00:41;12.40;99.90
54461;DHT22;40371;49.414;11.010;2022-10-31T01:03:07;12.40;99.90
54461;DHT22;40371;49.414;11.010;2022-10-31T01:05:36;12.50;99.90
54461;DHT22;40371;49.414;11.010;2022-10-31T01:08:02;12.50;99.90
54461;DHT22;40371;49.414;11.010;2022-10-31T01:10:27;12.30;99.90
54461;DHT22;40371;49.414;11.010;2022-10-31T01:12:53;12.30;99.90
54461;DHT22;40371;49.414;11.010;2022-10-31T01:15:22;12.20;99.90
54461;DHT22;40371;49.414;11.010;2022-10-31T01:17:48;12.20;99.90
54461;DHT22;40371;49.414;11.010;2022-10-31T01:20:15;12.10;99.90
54461;DHT22;40371;49.414;11.010;2022-10-31T01:22:41;12.30;99.90
54461;DHT22;40371;49.414;11.010;2022-10-31T01:25:08;12.30;99.90
54461;DHT22;40371;49.414;11.010;2022-10-31T01:27:34;12.30;99.90
54461;DHT22;40371;49.414;11.010;2022-10-31T01:30:00;12.40;99.90
54461;DHT22;40371;49.414;11.010;2022-10-31T01:32:27;12.40;99.90
54461;DHT22;40371;49.414;11.010;2022-10-31T01:34:54;12.30;99.90
54461;DHT22;40371;49.414;11.010;2022-10-31T01:37:20;12.30;99.90
54461;DHT22;40371;49.414;11.010;2022-10-31T01:39:47;12.30;99.90
54461;DHT22;40371;49.414;11.010;2022-10-31T01:42:18;12.30;99.90
54461;DHT22;40371;49.414;11.010;2022-10-31T01:44:51;12.30;99.90
54461;DHT22;40371;49.414;11.010;2022-10-31T01:47:21;12.30;99.90
54461;DHT22;40371;49.414;11.010;2022-10-31T01:49:52;12.20;99.90
54461;DHT22;40371;49.414;11.010;2022-10-31T01:57:47;12.10;99.90
54461;DHT22;40371;49.414;11.010;2022-10-31T02:00:17;12.10;99.90
54461;DHT22;40371;49.414;11.010;2022-10-31T02:02:45;12.10;99.90
54461;DHT22;40371;49.414;11.010;2022-10-31T02:05:20;12.00;99.90
54461;DHT22;40371;49.414;11.010;2022-10-31T02:08:15;12.00;99.90
54461;DHT22;40371;49.414;11.010;2022-10-31T02:10:40;12.00;99.90
54461;DHT22;40371;49.414;11.010;2022-10-31T02:13:08;12.10;99.90
54461;DHT22;40371;49.414;11.010;2022-10-31T02:15:43;12.10;99.90
54461;DHT22;40371;49.414;11.010;2022-10-31T02:18:10;12.00;99.90
54461;DHT22;40371;49.414;11.010;2022-10-31T02:31:19;11.90;99.90
54461;DHT22;40371;49.414;11.010;2022-10-31T02:34:20;11.90;99.90
54461;DHT22;40371;49.414;11.010;2022-10-31T02:36:54;12.00;99.90
54461;DHT22;40371;49.414;11.010;2022-10-31T02:39:32;11.90;99.90
54461;DHT22;40371;49.414;11.010;2022-10-31T02:42:32;11.80;99.90
54461;DHT22;40371;49.414;11.010;2022-10-31T02:45:10;11.80;99.90
54461;DHT22;40371;49.414;11.010;2022-10-31T02:47:37;11.90;99.90
54461;DHT22;40371;49.414;11.010;2022-10-31T02:50:11;11.90;99.90
54461;DHT22;40371;49.414;11.010;2022-10-31T02:52:38;11.90;99.90
54461;DHT22;40371;49.414;11.010;2022-10-31T02:58:08;11.70;99.90
54461;DHT22;40371;49.414;11.010;2022-10-31T03:00:45;11.70;99.90
54461;DHT22;40371;49.414;11.010;2022-10-31T03:08:54;11.60;99.90
54461;DHT22;40371;49.414;11.010;2022-10-31T03:11:32;11.60;99.90
54461;DHT22;40371;49.414;11.010;2022-10-31T03:14:10;11.60;99.90
54461;DHT22;40371;49.414;11.010;2022-10-31T03:16:47;11.50;99.90
54461;DHT22;40371;49.414;11.010;2022-10-31T03:19:25;11.50;99.90
54461;DHT22;40371;49.414;11.010;2022-10-31T03:22:16;11.60;99.90
54461;DHT22;40371;49.414;11.010;2022-10-31T03:24:43;11.40;99.90
54461;DHT22;40371;49.414;11.010;2022-10-31T03:27:12;11.50;99.90
54461;DHT22;40371;49.414;11.010;2022-10-31T03:29:40;11.40;99.90
54461;DHT22;40371;49.414;11.010;2022-10-31T03:32:18;11.50;99.90
54461;DHT22;40371;49.414;11.010;2022-10-31T03:34:46;11.40;99.90
54461;DHT22;40371;49.414;11.010;2022-10-31T03:37:17;11.40;99.90
54461;DHT22;40371;49.414;11.010;2022-10-31T03:39:47;11.40;99.90
54461;DHT22;40371;49.414;11.010;2022-10-31T03:42:16;11.30;99.90
54461;DHT22;40371;49.414;11.010;2022-10-31T03:44:48;11.10;99.90
54461;DHT22;40371;49.414;11.010;2022-10-31T03:47:17;11.20;99.90
54461;DHT22;40371;49.414;11.010;2022-10-31T03:49:43;11.20;99.90
54461;DHT22;40371;49.414;11.010;2022-10-31T03:57:45;11.00;99.90
54461;DHT22;40371;49.414;11.010;2022-10-31T04:00:14;10.90;99.90
54461;DHT22;40371;49.414;11.010;2022-10-31T04:02:53;11.10;99.90
54461;DHT22;40371;49.414;11.010;2022-10-31T04:05:21;11.20;99.90
54461;DHT22;40371;49.414;11.010;2022-10-31T04:07:53;11.20;99.90
54461;DHT22;40371;49.414;11.010;2022-10-31T04:10:21;11.20;99.90
54461;DHT22;40371;49.414;11.010;2022-10-31T04:12:52;11.10;99.90
54461;DHT22;40371;49.414;11.010;2022-10-31T04:15:26;11.30;99.90
54461;DHT22;40371;49.414;11.010;2022-10-31T04:17:55;11.20;99.90
54461;DHT22;40371;49.414;11.010;2022-10-31T04:20:33;11.30;99.90
54461;DHT22;40371;49.414;11.010;2022-10-31T04:23:00;11.40;99.90
54461;DHT22;40371;49.414;11.010;2022-10-31T04:25:26;11.30;99.90
54461;DHT22;40371;49.414;11.010;2022-10-31T04:27:53;11.20;99.90
54461;DHT22;40371;49.414;11.010;2022-10-31T04:30:19;11.30;99.90
54461;DHT22;40371;49.414;11.010;2022-10-31T04:32:44;11.20;99.90
54461;DHT22;40371;49.414;11.010;2022-10-31T04:35:10;11.20;99.90
54461;DHT22;40371;49.414;11.010;2022-10-31T04:37:36;11.10;99.90
54461;DHT22;40371;49.414;11.010;2022-10-31T04:40:03;11.20;99.90
54461;DHT22;40371;49.414;11.010;2022-10-31T04:42:41;11.20;99.90
54461;DHT22;40371;49.414;11.010;2022-10-31T04:45:08;11.20;99.90
54461;DHT22;40371;49.414;11.010;2022-10-31T04:47:35;11.20;99.90
54461;DHT22;40371;49.414;11.010;2022-10-31T04:50:01;11.10;99.90
54461;DHT22;40371;49.414;11.010;2022-10-31T04:52:27;11.10;99.90
54461;DHT22;40371;49.414;11.010;2022-10-31T04:54:53;11.10;99.90
54461;DHT22;40371;49.414;11.010;2022-10-31T04:57:46;11.10;99.90
54461;DHT22;40371;49.414;11.010;2022-10-31T05:00:14;11.10;99.90
54461;DHT22;40371;49.414;11.010;2022-10-31T05:02:47;11.10;99.90
54461;DHT22;40371;49.414;11.010;2022-10-31T05:05:14;11.10;99.90
54461;DHT22;40371;49.414;11.010;2022-10-31T05:07:41;11.10;99.90
54461;DHT22;40371;49.414;11.010;2022-10-31T05:10:12;11.10;99.90
54461;DHT22;40371;49.414;11.010;2022-10-31T05:12:40;11.20;99.90
54461;DHT22;40371;49.414;11.010;2022-10-31T05:15:30;11.10;99.90
54461;DHT22;40371;49.414;11.010;2022-10-31T05:18:14;11.10;99.90
54461;DHT22;40371;49.414;11.010;2022-10-31T05:21:00;11.10;99.90
54461;DHT22;40371;49.414;11.010;2022-10-31T05:23:36;11.00;99.90
54461;DHT22;40371;49.414;11.010;2022-10-31T05:26:04;11.00;99.90
54461;DHT22;40371;49.414;11.010;2022-10-31T05:28:30;11.00;99.90
54461;DHT22;40371;49.414;11.010;2022-10-31T05:30:56;10.70;99.90
54461;DHT22;40371;49.414;11.010;2022-10-31T05:33:22;10.80;99.90
54461;DHT22;40371;49.414;11.010;2022-10-31T05:36:07;10.80;99.90
54461;DHT22;40371;49.414;11.010;2022-10-31T05:38:41;10.80;99.90
54461;DHT22;40371;49.414;11.010;2022-10-31T05:41:12;10.80;99.90
54461;DHT22;40371;49.414;11.010;2022-10-31T05:43:42;10.80;99.90
54461;DHT22;40371;49.414;11.010;2022-10-31T05:46:08;10.70;99.90
54461;DHT22;40371;49.414;11.010;2022-10-31T05:49:00;10.80;99.90
54461;DHT22;40371;49.414;11.010;2022-10-31T05:52:00;10.80;99.90
54461;DHT22;40371;49.414;11.010;2022-10-31T05:54:35;10.90;99.90
54461;DHT22;40371;49.414;11.010;2022-10-31T05:57:00;10.90;99.90
54461;DHT22;40371;49.414;11.010;2022-10-31T05:59:26;10.90;99.90
54461;DHT22;40371;49.414;11.010;2022-10-31T06:01:52;10.80;99.90
54461;DHT22;40371;49.414;11.010;2022-10-31T06:04:29;10.70;99.90
54461;DHT22;40371;49.414;11.010;2022-10-31T06:06:56;10.60;99.90
54461;DHT22;40371;49.414;11.010;2022-10-31T06:09:22;10.60;99.90
54461;DHT22;40371;49.414;11.010;2022-10-31T06:11:48;10.60;99.90
54461;DHT22;40371;49.414;11.010;2022-10-31T06:14:40;10.70;99.90
54461;DHT22;40371;49.414;11.010;2022-10-31T06:17:07;10.70;99.90
54461;DHT22;40371;49.414;11.010;2022-10-31T06:19:41;10.70;99.90
54461;DHT22;40371;49.414;11.010;2022-10-31T06:22:09;10.60;99.90
54461;DHT22;40371;49.414;11.010;2022-10-31T06:24:37;10.40;99.90
54461;DHT22;40371;49.414;11.010;2022-10-31T06:27:17;10.30;99.90
54461;DHT22;40371;49.414;11.010;2022-10-31T06:29:43;10.30;99.90
54461;DHT22;40371;49.414;11.010;2022-10-31T06:32:17;10.50;99.90
54461;DHT22;40371;49.414;11.010;2022-10-31T06:34:44;10.40;99.90
54461;DHT22;40371;49.414;11.010;2022-10-31T06:37:14;10.30;99.90
54461;DHT22;40371;49.414;11.010;2022-10-31T06:39:43;10.30;99.90
54461;DHT22;40371;49.414;11.010;2022-10-31T06:42:10;10.30;99.90
54461;DHT22;40371;49.414;11.010;2022-10-31T06:44:36;10.40;99.90
54461;DHT22;40371;49.414;11.010;2022-10-31T06:47:20;10.60;99.90
54461;DHT22;40371;49.414;11.010;2022-10-31T06:49:55;10.70;99.90
54461;DHT22;40371;49.414;11.010;2022-10-31T06:52:22;10.70;99.90
54461;DHT22;40371;49.414;11.010;2022-10-31T06:54:49;10.70;99.90
54461;DHT22;40371;49.414;11.010;2022-10-31T06:57:15;10.50;99.90
54461;DHT22;40371;49.414;11.010;2022-10-31T06:59:41;10.40;99.90
54461;DHT22;40371;49.414;11.010;2022-10-31T07:02:24;10.40;99.90
54461;DHT22;40371;49.414;11.010;2022-10-31T07:04:50;10.50;99.90
54461;DHT22;40371;49.414;11.010;2022-10-31T07:07:17;10.40;99.90
54461;DHT22;40371;49.414;11.010;2022-10-31T07:09:44;10.60;99.90
54461;DHT22;40371;49.414;11.010;2022-10-31T07:12:12;10.90;99.90
54461;DHT22;40371;49.414;11.010;2022-10-31T07:14:44;11.00;99.90
54461;DHT22;40371;49.414;11.010;2022-10-31T07:17:10;11.10;99.90
54461;DHT22;40371;49.414;11.010;2022-10-31T07:19:40;11.10;99.90
54461;DHT22;40371;49.414;11.010;2022-10-31T07:22:05;11.00;99.90
54461;DHT22;40371;49.414;11.010;2022-10-31T07:24:32;11.10;99.90
54461;DHT22;40371;49.414;11.010;2022-10-31T07:27:16;11.10;99.90
54461;DHT22;40371;49.414;11.010;2022-10-31T07:29:46;11.10;99.90
54461;DHT22;40371;49.414;11.010;2022-10-31T07:32:12;11.20;99.90
54461;DHT22;40371;49.414;11.010;2022-10-31T07:34:44;11.10;99.90
54461;DHT22;40371;49.414;11.010;2022-10-31T07:37:19;11.30;99.90
54461;DHT22;40371;49.414;11.010;2022-10-31T07:39:45;11.50;99.90
54461;DHT22;40371;49.414;11.010;2022-10-31T07:42:10;11.50;99.90
54461;DHT22;40371;49.414;11.010;2022-10-31T07:44:41;11.50;99.90
54461;DHT22;40371;49.414;11.010;2022-10-31T07:47:49;11.70;99.90
54461;DHT22;40371;49.414;11.010;2022-10-31T07:50:34;11.80;99.90
54461;DHT22;40371;49.414;11.010;2022-10-31T07:53:15;12.10;99.90
54461;DHT22;40371;49.414;11.010;2022-10-31T07:55:48;12.40;99.90
54461;DHT22;40371;49.414;11.010;2022-10-31T07:58:16;12.50;99.90
54461;DHT22;40371;49.414;11.010;2022-10-31T08:00:44;12.00;99.90
54461;DHT22;40371;49.414;11.010;2022-10-31T08:03:18;11.80;99.90
54461;DHT22;40371;49.414;11.010;2022-10-31T08:06:02;11.80;99.90
54461;DHT22;40371;49.414;11.010;2022-10-31T08:08:46;12.00;99.90
54461;DHT22;40371;49.414;11.010;2022-10-31T08:11:12;12.40;99.90
54461;DHT22;40371;49.414;11.010;2022-10-31T08:13:38;12.40;99.90
54461;DHT22;40371;49.414;11.010;2022-10-31T08:16:04;12.20;99.90
54461;DHT22;40371;49.414;11.010;2022-10-31T08:18:32;12.20;99.90
54461;DHT22;40371;49.414;11.010;2022-10-31T08:20:58;12.50;99.90
54461;DHT22;40371;49.414;11.010;2022-10-31T08:23:24;12.80;99.90
54461;DHT22;40371;49.414;11.010;2022-10-31T08:25:53;13.00;99.90
54461;DHT22;40371;49.414;11.010;2022-10-31T08:28:19;13.20;99.90
54461;DHT22;40371;49.414;11.010;2022-10-31T08:30:48;13.10;99.90
54461;DHT22;40371;49.414;11.010;2022-10-31T08:33:32;12.90;99.90
54461;DHT22;40371;49.414;11.010;2022-10-31T08:36:16;12.90;99.90
54461;DHT22;40371;49.414;11.010;2022-10-31T08:39:00;12.90;99.90
54461;DHT22;40371;49.414;11.010;2022-10-31T08:41:27;13.10;99.90
54461;DHT22;40371;49.414;11.010;2022-10-31T08:43:53;13.20;99.90
54461;DHT22;40371;49.414;11.010;2022-10-31T08:46:19;13.30;99.90
54461;DHT22;40371;49.414;11.010;2022-10-31T08:48:49;13.90;99.90
54461;DHT22;40371;49.414;11.010;2022-10-31T08:51:16;13.50;99.90
54461;DHT22;40371;49.414;11.010;2022-10-31T08:53:42;14.40;99.90
54461;DHT22;40371;49.414;11.010;2022-10-31T08:56:26;15.20;99.90
54461;DHT22;40371;49.414;11.010;2022-10-31T08:58:53;16.10;99.90
54461;DHT22;40371;49.414;11.010;2022-10-31T09:01:25;16.70;99.90
54461;DHT22;40371;49.414;11.010;2022-10-31T09:03:51;17.70;99.90
54461;DHT22;40371;49.414;11.010;2022-10-31T09:06:16;19.00;99.90
54461;DHT22;40371;49.414;11.010;2022-10-31T09:08:42;18.50;99.90
54461;DHT22;40371;49.414;11.010;2022-10-31T09:11:08;18.60;99.90
54461;DHT22;40371;49.414;11.010;2022-10-31T09:13:54;19.40;99.90
54461;DHT22;40371;49.414;11.010;2022-10-31T09:16:54;20.20;99.90
54461;DHT22;40371;49.414;11.010;2022-10-31T09:19:27;20.10;99.90
54461;DHT22;40371;49.414;11.010;2022-10-31T09:21:54;21.20;99.90
54461;DHT22;40371;49.414;11.010;2022-10-31T09:24:20;21.70;99.90
54461;DHT22;40371;49.414;11.010;2022-10-31T09:26:45;22.00;99.90
54461;DHT22;40371;49.414;11.010;2022-10-31T09:29:17;22.10;99.90
54461;DHT22;40371;49.414;11.010;2022-10-31T09:31:44;22.30;99.90
54461;DHT22;40371;49.414;11.010;2022-10-31T09:34:23;22.90;99.90
54461;DHT22;40371;49.414;11.010;2022-10-31T09:37:00;23.60;99.90
54461;DHT22;40371;49.414;11.010;2022-10-31T09:39:26;23.50;99.90
54461;DHT22;40371;49.414;11.010;2022-10-31T09:47:57;23.70;99.90
54461;DHT22;40371;49.414;11.010;2022-10-31T09:50:40;23.80;99.90
54461;DHT22;40371;49.414;11.010;2022-10-31T09:53:37;24.10;99.90
54461;DHT22;40371;49.414;11.010;2022-10-31T09:56:13;24.10;99.90
54461;DHT22;40371;49.414;11.010;2022-10-31T09:58:43;23.50;99.90
54461;DHT22;40371;49.414;11.010;2022-10-31T10:01:28;23.00;99.90
54461;DHT22;40371;49.414;11.010;2022-10-31T10:04:04;23.90;99.90
54461;DHT22;40371;49.414;11.010;2022-10-31T10:06:51;23.90;99.90
54461;DHT22;40371;49.414;11.010;2022-10-31T10:09:52;23.80;99.90
54461;DHT22;40371;49.414;11.010;2022-10-31T10:12:48;22.80;99.90
54461;DHT22;40371;49.414;11.010;2022-10-31T10:15:34;23.90;99.90
54461;DHT22;40371;49.414;11.010;2022-10-31T10:18:38;24.30;99.90
54461;DHT22;40371;49.414;11.010;2022-10-31T10:24:17;25.30;99.90
54461;DHT22;40371;49.414;11.010;2022-10-31T10:26:53;25.30;99.90
54461;DHT22;40371;49.414;11.010;2022-10-31T10:32:03;25.50;99.90
54461;DHT22;40371;49.414;11.010;2022-10-31T10:34:39;25.30;99.90
54461;DHT22;40371;49.414;11.010;2022-10-31T10:37:37;25.10;99.90
54461;DHT22;40371;49.414;11.010;2022-10-31T10:40:18;25.20;99.90
54461;DHT22;40371;49.414;11.010;2022-10-31T10:45:53;26.80;99.90
54461;DHT22;40371;49.414;11.010;2022-10-31T10:48:45;27.20;99.90
54461;DHT22;40371;49.414;11.010;2022-10-31T10:51:25;26.00;99.90
54461;DHT22;40371;49.414;11.010;2022-10-31T10:54:13;25.50;99.90
54461;DHT22;40371;49.414;11.010;2022-10-31T10:59:31;25.00;99.90
54461;DHT22;40371;49.414;11.010;2022-10-31T11:01:58;24.70;99.90
54461;DHT22;40371;49.414;11.010;2022-10-31T11:04:35;24.60;99.90
54461;DHT22;40371;49.414;11.010;2022-10-31T11:07:06;24.20;99.90
54461;DHT22;40371;49.414;11.010;2022-10-31T11:09:33;24.20;99.90
54461;DHT22;40371;49.414;11.010;2022-10-31T11:12:05;23.90;99.90
54461;DHT22;40371;49.414;11.010;2022-10-31T11:14:36;23.90;99.90
54461;DHT22;40371;49.414;11.010;2022-10-31T11:17:15;24.30;99.90
54461;DHT22;40371;49.414;11.010;2022-10-31T11:19:41;24.60;99.90
54461;DHT22;40371;49.414;11.010;2022-10-31T11:22:12;24.10;99.90
54461;DHT22;40371;49.414;11.010;2022-10-31T11:24:40;24.20;99.90
54461;DHT22;40371;49.414;11.010;2022-10-31T11:27:14;24.40;99.90
54461;DHT22;40371;49.414;11.010;2022-10-31T11:29:40;23.90;99.90
54461;DHT22;40371;49.414;11.010;2022-10-31T11:32:08;23.20;99.90
54461;DHT22;40371;49.414;11.010;2022-10-31T11:34:44;23.10;99.90
54461;DHT22;40371;49.414;11.010;2022-10-31T11:37:22;22.90;99.90
54461;DHT22;40371;49.414;11.010;2022-10-31T11:39:57;22.80;99.90
54461;DHT22;40371;49.414;11.010;2022-10-31T11:42:26;22.80;99.90
54461;DHT22;40371;49.414;11.010;2022-10-31T11:44:54;22.90;99.90
54461;DHT22;40371;49.414;11.010;2022-10-31T11:47:28;22.70;99.90
54461;DHT22;40371;49.414;11.010;2022-10-31T11:49:56;22.90;99.90
54461;DHT22;40371;49.414;11.010;2022-10-31T11:52:26;23.00;99.90
54461;DHT22;40371;49.414;11.010;2022-10-31T11:54:58;22.80;99.90
54461;DHT22;40371;49.414;11.010;2022-10-31T11:57:29;22.90;99.90
54461;DHT22;40371;49.414;11.010;2022-10-31T11:59:58;22.80;99.90
54461;DHT22;40371;49.414;11.010;2022-10-31T12:02:25;23.00;99.90
54461;DHT22;40371;49.414;11.010;2022-10-31T12:07:24;22.90;99.90
54461;DHT22;40371;49.414;11.010;2022-10-31T12:09:50;22.70;99.90
54461;DHT22;40371;49.414;11.010;2022-10-31T12:12:29;22.50;99.90
54461;DHT22;40371;49.414;11.010;2022-10-31T12:15:18;22.50;99.90
54461;DHT22;40371;49.414;11.010;2022-10-31T12:29:47;22.30;99.90
54461;DHT22;40371;49.414;11.010;2022-10-31T12:32:33;22.40;99.90
54461;DHT22;40371;49.414;11.010;2022-10-31T12:43:33;22.00;99.90
54461;DHT22;40371;49.414;11.010;2022-10-31T12:46:02;22.00;99.90
54461;DHT22;40371;49.414;11.010;2022-10-31T12:48:53;22.00;99.90
54461;DHT22;40371;49.414;11.010;2022-10-31T12:51:48;22.00;99.90
54461;DHT22;40371;49.414;11.010;2022-10-31T12:57:31;22.10;99.90
54461;DHT22;40371;49.414;11.010;2022-10-31T13:02:48;21.80;99.90
54461;DHT22;40371;49.414;11.010;2022-10-31T13:05:46;21.90;99.90
54461;DHT22;40371;49.414;11.010;2022-10-31T13:08:18;21.70;99.90
54461;DHT22;40371;49.414;11.010;2022-10-31T13:11:05;21.70;99.90
54461;DHT22;40371;49.414;11.010;2022-10-31T13:16:13;21.70;99.90
54461;DHT22;40371;49.414;11.010;2022-10-31T13:18:47;21.80;99.90
54461;DHT22;40371;49.414;11.010;2022-10-31T13:24:12;21.70;99.90
54461;DHT22;40371;49.414;11.010;2022-10-31T13:26:47;21.60;99.90
54461;DHT22;40371;49.414;11.010;2022-10-31T13:29:30;21.50;99.90
54461;DHT22;40371;49.414;11.010;2022-10-31T13:32:04;21.40;99.90
54461;DHT22;40371;49.414;11.010;2022-10-31T13:34:35;21.20;99.90
54461;DHT22;40371;49.414;11.010;2022-10-31T13:42:57;21.20;99.90
54461;DHT22;40371;49.414;11.010;2022-10-31T13:45:25;21.10;99.90
54461;DHT22;40371;49.414;11.010;2022-10-31T13:50:39;21.20;99.90
54461;DHT22;40371;49.414;11.010;2022-10-31T13:53:22;21.30;99.90
54461;DHT22;40371;49.414;11.010;2022-10-31T13:58:35;21.30;99.90
54461;DHT22;40371;49.414;11.010;2022-10-31T14:01:10;21.40;99.90
54461;DHT22;40371;49.414;11.010;2022-10-31T14:03:38;21.50;99.90
54461;DHT22;40371;49.414;11.010;2022-10-31T14:06:06;21.60;99.90
54461;DHT22;40371;49.414;11.010;2022-10-31T14:08:35;21.60;99.90
54461;DHT22;40371;49.414;11.010;2022-10-31T14:11:03;21.50;99.90
54461;DHT22;40371;49.414;11.010;2022-10-31T14:16:18;21.20;99.90
54461;DHT22;40371;49.414;11.010;2022-10-31T14:18:50;21.10;99.90
54461;DHT22;40371;49.414;11.010;2022-10-31T14:23:47;21.00;99.90
54461;DHT22;40371;49.414;11.010;2022-10-31T14:28:46;20.70;99.90
54461;DHT22;40371;49.414;11.010;2022-10-31T14:34:06;20.60;99.90
54461;DHT22;40371;49.414;11.010;2022-10-31T14:51:02;20.20;99.90
54461;DHT22;40371;49.414;11.010;2022-10-31T14:53:41;20.10;99.90
54461;DHT22;40371;49.414;11.010;2022-10-31T14:56:10;20.00;99.90
54461;DHT22;40371;49.414;11.010;2022-10-31T14:58:42;20.00;99.90
54461;DHT22;40371;49.414;11.010;2022-10-31T15:03:47;19.80;99.90
54461;DHT22;40371;49.414;11.010;2022-10-31T15:06:16;19.70;99.90
54461;DHT22;40371;49.414;11.010;2022-10-31T15:08:51;19.70;99.90
54461;DHT22;40371;49.414;11.010;2022-10-31T15:11:19;19.60;99.90
54461;DHT22;40371;49.414;11.010;2022-10-31T15:13:51;19.50;99.90
54461;DHT22;40371;49.414;11.010;2022-10-31T15:16:34;19.40;99.90
54461;DHT22;40371;49.414;11.010;2022-10-31T15:19:04;19.30;99.90
54461;DHT22;40371;49.414;11.010;2022-10-31T15:21:31;19.30;99.90
54461;DHT22;40371;49.414;11.010;2022-10-31T15:23:59;19.20;99.90
54461;DHT22;40371;49.414;11.010;2022-10-31T15:26:33;19.20;99.90
54461;DHT22;40371;49.414;11.010;2022-10-31T15:29:03;19.10;99.90
54461;DHT22;40371;49.414;11.010;2022-10-31T15:31:29;19.10;99.90
54461;DHT22;40371;49.414;11.010;2022-10-31T15:34:02;19.10;99.90
54461;DHT22;40371;49.414;11.010;2022-10-31T15:36:29;19.00;99.90
54461;DHT22;40371;49.414;11.010;2022-10-31T15:38:57;18.90;99.90
54461;DHT22;40371;49.414;11.010;2022-10-31T15:43:54;18.90;99.90
54461;DHT22;40371;49.414;11.010;2022-10-31T15:46:20;18.90;99.90
54461;DHT22;40371;49.414;11.010;2022-10-31T15:48:47;18.80;99.90
54461;DHT22;40371;49.414;11.010;2022-10-31T15:51:13;18.70;99.90
54461;DHT22;40371;49.414;11.010;2022-10-31T15:53:46;18.60;99.90
54461;DHT22;40371;49.414;11.010;2022-10-31T15:56:30;18.60;99.90
54461;DHT22;40371;49.414;11.010;2022-10-31T15:58:58;18.50;99.90
54461;DHT22;40371;49.414;11.010;2022-10-31T16:01:29;18.30;99.90
54461;DHT22;40371;49.414;11.010;2022-10-31T16:06:36;18.30;99.90
54461;DHT22;40371;49.414;11.010;2022-10-31T16:09:03;18.30;99.90
54461;DHT22;40371;49.414;11.010;2022-10-31T16:11:32;18.20;99.90
54461;DHT22;40371;49.414;11.010;2022-10-31T16:14:22;18.10;99.90
54461;DHT22;40371;49.414;11.010;2022-10-31T16:16:51;18.00;99.90
54461;DHT22;40371;49.414;11.010;2022-10-31T16:19:26;17.80;99.90
54461;DHT22;40371;49.414;11.010;2022-10-31T16:22:13;17.60;99.90
54461;DHT22;40371;49.414;11.010;2022-10-31T16:24:49;17.60;99.90
54461;DHT22;40371;49.414;11.010;2022-10-31T16:27:22;17.60;99.90
54461;DHT22;40371;49.414;11.010;2022-10-31T16:29:52;17.60;99.90
54461;DHT22;40371;49.414;11.010;2022-10-31T16:32:27;17.50;99.90
54461;DHT22;40371;49.414;11.010;2022-10-31T16:37:33;17.30;99.90
54461;DHT22;40371;49.414;11.010;2022-10-31T16:39:59;17.10;99.90
54461;DHT22;40371;49.414;11.010;2022-10-31T16:42:25;17.20;99.90
54461;DHT22;40371;49.414;11.010;2022-10-31T16:44:52;17.20;99.90
54461;DHT22;40371;49.414;11.010;2022-10-31T16:47:17;17.20;99.90
54461;DHT22;40371;49.414;11.010;2022-10-31T16:49:44;17.20;99.90
54461;DHT22;40371;49.414;11.010;2022-10-31T16:52:11;17.10;99.90
54461;DHT22;40371;49.414;11.010;2022-10-31T16:54:37;17.10;99.90
54461;DHT22;40371;49.414;11.010;2022-10-31T16:57:04;17.00;99.90
54461;DHT22;40371;49.414;11.010;2022-10-31T16:59:31;16.80;99.90
54461;DHT22;40371;49.414;11.010;2022-10-31T17:02:00;16.80;99.90
54461;DHT22;40371;49.414;11.010;2022-10-31T17:04:26;16.70;99.90
54461;DHT22;40371;49.414;11.010;2022-10-31T17:06:51;16.70;99.90
54461;DHT22;40371;49.414;11.010;2022-10-31T17:09:17;16.70;99.90
54461;DHT22;40371;49.414;11.010;2022-10-31T17:11:46;16.70;99.90
54461;DHT22;40371;49.414;11.010;2022-10-31T17:14:13;16.70;99.90
54461;DHT22;40371;49.414;11.010;2022-10-31T17:16:38;16.70;99.90
54461;DHT22;40371;49.414;11.010;2022-10-31T17:19:04;16.60;99.90
54461;DHT22;40371;49.414;11.010;2022-10-31T17:21:30;16.50;99.90
54461;DHT22;40371;49.414;11.010;2022-10-31T17:23:56;16.40;99.90
54461;DHT22;40371;49.414;11.010;2022-10-31T17:26:21;16.40;99.90
54461;DHT22;40371;49.414;11.010;2022-10-31T17:28:47;16.40;99.90
54461;DHT22;40371;49.414;11.010;2022-10-31T17:31:27;16.40;99.90
54461;DHT22;40371;49.414;11.010;2022-10-31T17:33:54;16.20;99.90
54461;DHT22;40371;49.414;11.010;2022-10-31T17:36:20;16.20;99.90
54461;DHT22;40371;49.414;11.010;2022-10-31T17:38:46;16.20;99.90
54461;DHT22;40371;49.414;11.010;2022-10-31T17:41:11;16.20;99.90
54461;DHT22;40371;49.414;11.010;2022-10-31T17:43:37;16.20;99.90
54461;DHT22;40371;49.414;11.010;2022-10-31T17:46:03;16.20;99.90
54461;DHT22;40371;49.414;11.010;2022-10-31T17:48:29;16.20;99.90
54461;DHT22;40371;49.414;11.010;2022-10-31T17:50:58;16.10;99.90
54461;DHT22;40371;49.414;11.010;2022-10-31T17:53:23;16.00;99.90